createdAt,value
2023-03-23T00:01:14.111Z,11.83
2023-03-23T00:03:42.116Z,11.73
2023-03-23T00:06:09.780Z,11.70
2023-03-23T00:08:38.855Z,11.71
2023-03-23T00:11:06.107Z,11.61
2023-03-23T00:13:34.120Z,11.63
2023-03-23T00:16:04.471Z,11.67
2023-03-23T00:18:31.210Z,11.47
2023-03-23T00:20:57.948Z,11.46
2023-03-23T00:23:26.846Z,11.48
2023-03-23T00:25:59.495Z,11.48
2023-03-23T00:28:28.159Z,11.79
2023-03-23T00:30:59.304Z,11.82
2023-03-23T00:33:29.247Z,11.82
2023-03-23T00:35:56.463Z,11.89
2023-03-23T00:38:24.872Z,11.89
2023-03-23T00:40:55.167Z,11.80
2023-03-23T00:43:25.663Z,11.71
2023-03-23T00:45:55.191Z,11.98
2023-03-23T00:48:23.439Z,11.97
2023-03-23T00:50:51.157Z,11.92
2023-03-23T00:53:18.657Z,12.05
2023-03-23T00:55:47.313Z,11.98
2023-03-23T00:58:15.790Z,11.98
2023-03-23T01:00:43.534Z,11.94
2023-03-23T01:03:19.184Z,11.93
2023-03-23T01:05:48.038Z,11.98
2023-03-23T01:08:15.740Z,11.88
2023-03-23T01:10:42.559Z,11.84
2023-03-23T01:13:10.663Z,11.87
2023-03-23T01:15:37.579Z,11.78
2023-03-23T01:18:04.912Z,11.74
2023-03-23T01:20:32.632Z,11.74
2023-03-23T01:23:01.733Z,11.73
2023-03-23T01:25:29.983Z,11.71
2023-03-23T01:27:57.848Z,11.74
2023-03-23T01:30:26.565Z,11.73
2023-03-23T01:32:53.804Z,11.77
2023-03-23T01:35:20.629Z,11.70
2023-03-23T01:37:48.633Z,11.71
2023-03-23T01:40:16.774Z,11.65
2023-03-23T01:42:44.350Z,11.74
2023-03-23T01:45:35.925Z,11.67
2023-03-23T01:48:09.984Z,11.57
2023-03-23T01:50:48.495Z,11.58
2023-03-23T01:53:15.563Z,11.53
2023-03-23T01:55:44.723Z,11.59
2023-03-23T01:58:13.001Z,11.55
2023-03-23T02:00:41.802Z,11.63
2023-03-23T02:03:09.786Z,11.71
2023-03-23T02:05:44.563Z,11.65
2023-03-23T02:08:19.403Z,11.65
2023-03-23T02:10:47.348Z,11.68
2023-03-23T02:13:18.483Z,11.67
2023-03-23T02:15:56.736Z,11.75
2023-03-23T02:18:44.172Z,11.80
2023-03-23T02:21:19.864Z,11.80
2023-03-23T02:24:13.797Z,11.68
2023-03-23T02:26:58.158Z,11.66
2023-03-23T02:29:35.034Z,11.52
2023-03-23T02:32:08.899Z,11.38
2023-03-23T02:35:20.813Z,11.30
2023-03-23T02:37:51.957Z,11.17
2023-03-23T02:40:31.816Z,11.12
2023-03-23T02:43:00.700Z,11.11
2023-03-23T02:45:31.039Z,11.10
2023-03-23T02:47:58.048Z,10.96
2023-03-23T02:50:28.251Z,11.05
2023-03-23T02:52:56.690Z,11.06
2023-03-23T02:55:26.911Z,11.08
2023-03-23T02:57:54.864Z,11.07
2023-03-23T03:00:22.259Z,11.08
2023-03-23T03:02:53.778Z,11.12
2023-03-23T03:05:45.891Z,11.06
2023-03-23T03:08:35.735Z,11.09
2023-03-23T03:11:15.006Z,11.06
2023-03-23T03:13:53.874Z,11.10
2023-03-23T03:16:30.383Z,11.11
2023-03-23T03:19:13.456Z,11.25
2023-03-23T03:21:44.103Z,11.28
2023-03-23T03:24:14.896Z,11.21
2023-03-23T03:26:48.628Z,11.17
2023-03-23T03:29:31.549Z,11.24
2023-03-23T03:32:01.153Z,11.23
2023-03-23T03:34:28.575Z,11.16
2023-03-23T03:36:59.815Z,11.23
2023-03-23T03:39:28.626Z,11.12
2023-03-23T03:41:56.255Z,11.23
2023-03-23T03:44:22.926Z,11.23
2023-03-23T03:46:49.708Z,11.29
2023-03-23T03:49:16.913Z,11.28
2023-03-23T03:51:43.844Z,11.21
2023-03-23T03:54:18.761Z,11.24
2023-03-23T03:56:46.814Z,11.19
2023-03-23T03:59:33.864Z,11.14
2023-03-23T04:02:28.324Z,11.09
2023-03-23T04:04:55.894Z,11.01
2023-03-23T04:07:22.594Z,11.01
2023-03-23T04:09:50.302Z,10.92
2023-03-23T04:12:20.601Z,10.89
2023-03-23T04:14:57.193Z,10.82
2023-03-23T04:17:37.101Z,10.87
2023-03-23T04:20:31.336Z,10.87
2023-03-23T04:22:58.588Z,10.89
2023-03-23T04:25:26.051Z,10.93
2023-03-23T04:27:53.969Z,10.92
2023-03-23T04:30:30.502Z,10.92
2023-03-23T04:33:08.093Z,10.94
2023-03-23T04:35:35.348Z,10.92
2023-03-23T04:38:15.402Z,10.91
2023-03-23T04:40:45.468Z,10.91
2023-03-23T04:43:33.911Z,10.85
2023-03-23T04:46:09.757Z,10.92
2023-03-23T04:48:39.468Z,10.95
2023-03-23T04:51:13.522Z,10.90
2023-03-23T04:53:42.359Z,10.92
2023-03-23T04:56:09.356Z,10.97
2023-03-23T04:58:42.439Z,11.03
2023-03-23T05:01:18.912Z,11.08
2023-03-23T05:03:56.806Z,11.14
2023-03-23T05:06:23.648Z,11.16
2023-03-23T05:08:54.247Z,11.19
2023-03-23T05:11:23.575Z,11.16
2023-03-23T05:13:50.317Z,11.26
2023-03-23T05:16:17.680Z,11.28
2023-03-23T05:18:46.327Z,11.29
2023-03-23T05:21:15.889Z,11.27
2023-03-23T05:23:48.537Z,11.33
2023-03-23T05:26:18.980Z,11.33
2023-03-23T05:28:46.779Z,11.33
2023-03-23T05:31:20.066Z,11.28
2023-03-23T05:33:47.665Z,11.33
2023-03-23T05:36:25.642Z,11.34
2023-03-23T05:39:13.104Z,11.30
2023-03-23T05:41:56.879Z,11.31
2023-03-23T05:44:27.984Z,11.27
2023-03-23T05:47:01.171Z,11.34
2023-03-23T05:49:28.326Z,11.34
2023-03-23T05:51:55.466Z,11.34
2023-03-23T05:54:22.633Z,11.30
2023-03-23T05:56:50.544Z,11.33
2023-03-23T05:59:34.820Z,11.32
2023-03-23T06:02:15.528Z,11.38
2023-03-23T06:04:42.709Z,11.44
2023-03-23T06:07:21.880Z,11.48
2023-03-23T06:09:58.715Z,11.42
2023-03-23T06:12:26.201Z,11.37
2023-03-23T06:15:01.876Z,11.46
2023-03-23T06:17:48.632Z,11.41
2023-03-23T06:20:16.284Z,11.50
2023-03-23T06:22:43.153Z,11.51
2023-03-23T06:25:14.264Z,11.55
2023-03-23T06:27:43.507Z,11.53
2023-03-23T06:30:11.200Z,11.53
2023-03-23T06:32:39.472Z,11.54
2023-03-23T06:35:11.307Z,11.50
2023-03-23T06:37:50.443Z,11.48
2023-03-23T06:40:23.163Z,11.53
2023-03-23T06:42:54.006Z,11.50
2023-03-23T06:45:46.953Z,11.47
2023-03-23T06:48:40.018Z,11.48
2023-03-23T06:51:07.767Z,11.42
2023-03-23T06:53:37.196Z,11.43
2023-03-23T06:56:06.193Z,11.53
2023-03-23T06:58:34.844Z,11.49
2023-03-23T07:01:02.263Z,11.51
2023-03-23T07:03:34.001Z,11.50
2023-03-23T07:06:01.122Z,11.55
2023-03-23T07:08:32.319Z,11.60
2023-03-23T07:10:59.060Z,11.59
2023-03-23T07:13:28.581Z,11.54
2023-03-23T07:15:59.583Z,11.62
2023-03-23T07:18:26.590Z,11.61
2023-03-23T07:20:54.698Z,11.66
2023-03-23T07:23:25.351Z,11.69
2023-03-23T07:25:58.197Z,11.68
2023-03-23T07:28:31.582Z,11.74
2023-03-23T07:31:03.010Z,11.74
2023-03-23T07:33:29.886Z,11.77
2023-03-23T07:36:00.624Z,11.80
2023-03-23T07:38:28.879Z,11.83
2023-03-23T07:40:55.595Z,11.91
2023-03-23T07:43:22.559Z,11.91
2023-03-23T07:45:52.906Z,11.91
2023-03-23T07:48:21.521Z,11.94
2023-03-23T07:50:49.002Z,12.00
2023-03-23T07:53:16.703Z,12.01
2023-03-23T07:55:46.939Z,12.10
2023-03-23T07:58:31.523Z,12.12
2023-03-23T08:00:58.870Z,12.11
2023-03-23T08:03:29.318Z,12.18
2023-03-23T08:06:16.587Z,12.24
2023-03-23T08:09:01.446Z,12.26
2023-03-23T08:11:49.400Z,12.34
2023-03-23T08:14:36.136Z,12.37
2023-03-23T08:17:21.700Z,12.38
2023-03-23T08:20:13.376Z,12.48
2023-03-23T08:23:05.103Z,12.53
2023-03-23T08:25:49.558Z,12.61
2023-03-23T08:28:26.654Z,12.64
2023-03-23T08:31:16.351Z,12.75
2023-03-23T08:34:12.875Z,12.79
2023-03-23T08:36:58.977Z,12.78
2023-03-23T08:39:46.281Z,12.83
2023-03-23T08:42:27.938Z,12.94
2023-03-23T08:45:17.210Z,12.90
2023-03-23T08:48:03.955Z,12.83
2023-03-23T08:50:44.938Z,12.92
2023-03-23T08:53:22.123Z,12.94
2023-03-23T08:55:50.399Z,13.09
2023-03-23T08:58:33.729Z,13.01
2023-03-23T09:01:01.206Z,13.15
2023-03-23T09:03:53.400Z,13.17
2023-03-23T09:06:38.829Z,13.26
2023-03-23T09:09:08.550Z,13.31
2023-03-23T09:11:35.900Z,13.15
2023-03-23T09:14:04.141Z,13.15
2023-03-23T09:16:34.457Z,13.23
2023-03-23T09:19:02.045Z,13.15
2023-03-23T09:21:30.184Z,13.22
2023-03-23T09:23:59.611Z,13.07
2023-03-23T09:26:27.915Z,13.00
2023-03-23T09:28:55.066Z,13.06
2023-03-23T09:31:23.371Z,13.12
2023-03-23T09:33:53.362Z,13.07
2023-03-23T09:36:22.440Z,13.06
2023-03-23T09:38:50.231Z,13.04
2023-03-23T09:41:55.592Z,13.03
2023-03-23T09:44:40.620Z,13.04
2023-03-23T09:47:19.783Z,13.10
2023-03-23T09:49:56.007Z,12.96
2023-03-23T09:52:24.182Z,12.93
2023-03-23T09:54:53.656Z,12.86
2023-03-23T09:57:31.323Z,12.85
2023-03-23T10:00:08.759Z,12.76
2023-03-23T10:03:05.869Z,12.89
2023-03-23T10:05:41.745Z,12.85
2023-03-23T10:08:36.559Z,13.09
2023-03-23T10:11:11.832Z,13.31
2023-03-23T10:13:38.607Z,13.37
2023-03-23T10:16:19.676Z,13.38
2023-03-23T10:19:00.311Z,13.35
2023-03-23T10:21:30.859Z,13.31
2023-03-23T10:24:01.574Z,13.33
2023-03-23T10:26:34.337Z,13.45
2023-03-23T10:29:11.577Z,13.56
2023-03-23T10:31:43.706Z,13.53
2023-03-23T10:34:18.140Z,13.72
2023-03-23T10:37:03.916Z,13.96
2023-03-23T10:39:40.067Z,14.00
2023-03-23T10:42:08.945Z,14.09
2023-03-23T10:44:36.088Z,14.37
2023-03-23T10:47:09.930Z,14.47
2023-03-23T10:49:46.481Z,14.41
2023-03-23T10:52:16.195Z,14.07
2023-03-23T10:54:56.964Z,13.96
2023-03-23T10:57:32.821Z,13.84
2023-03-23T11:00:07.369Z,13.89
2023-03-23T11:02:41.116Z,13.69
2023-03-23T11:05:20.224Z,13.72
2023-03-23T11:07:55.651Z,13.82
2023-03-23T11:10:53.739Z,13.96
2023-03-23T11:13:23.590Z,13.99
2023-03-23T11:15:50.713Z,13.84
2023-03-23T11:18:27.685Z,14.17
2023-03-23T11:20:58.026Z,14.32
2023-03-23T11:23:26.624Z,14.53
2023-03-23T11:26:00.130Z,14.93
2023-03-23T11:28:36.374Z,14.72
2023-03-23T11:31:06.550Z,14.87
2023-03-23T11:33:57.429Z,14.62
2023-03-23T11:36:37.842Z,14.67
2023-03-23T11:39:20.006Z,14.53
2023-03-23T11:41:46.767Z,14.65
2023-03-23T11:44:14.179Z,15.03
2023-03-23T11:46:43.878Z,15.12
2023-03-23T11:49:29.575Z,14.82
2023-03-23T11:52:12.303Z,14.66
2023-03-23T11:54:47.464Z,14.86
2023-03-23T11:57:14.942Z,14.92
2023-03-23T11:59:41.650Z,15.11
2023-03-23T12:02:33.825Z,14.81
2023-03-23T12:05:01.066Z,15.19
2023-03-23T12:07:50.030Z,15.51
2023-03-23T12:10:40.532Z,15.49
2023-03-23T12:13:40.274Z,15.83
2023-03-23T12:16:18.860Z,15.71
2023-03-23T12:19:16.702Z,15.36
2023-03-23T12:22:14.567Z,15.32
2023-03-23T12:24:59.450Z,15.13
2023-03-23T12:27:44.960Z,15.44
2023-03-23T12:30:54.088Z,15.65
2023-03-23T12:33:40.106Z,15.49
2023-03-23T12:36:31.468Z,15.42
2023-03-23T12:39:12.228Z,15.58
2023-03-23T12:42:00.762Z,15.63
2023-03-23T12:44:54.429Z,15.63
2023-03-23T12:47:38.046Z,16.00
2023-03-23T12:50:24.153Z,15.96
2023-03-23T12:53:00.125Z,16.45
2023-03-23T12:55:35.698Z,16.86
2023-03-23T12:58:08.891Z,16.64
2023-03-23T13:00:53.983Z,16.65
2023-03-23T13:03:34.026Z,17.00
2023-03-23T13:06:17.786Z,16.77
2023-03-23T13:09:02.242Z,16.91
2023-03-23T13:11:37.179Z,17.41
2023-03-23T13:14:33.324Z,17.71
2023-03-23T13:17:09.219Z,18.56
2023-03-23T13:19:57.716Z,18.53
2023-03-23T13:22:34.561Z,17.82
2023-03-23T13:25:07.615Z,17.95
2023-03-23T13:27:34.675Z,18.29
2023-03-23T13:30:01.385Z,18.26
2023-03-23T13:32:49.937Z,18.01
2023-03-23T13:35:23.006Z,18.31
2023-03-23T13:37:52.942Z,18.42
2023-03-23T13:40:32.855Z,18.65
2023-03-23T13:43:01.573Z,17.88
2023-03-23T13:45:31.524Z,17.88
2023-03-23T13:48:13.644Z,17.83
2023-03-23T13:50:51.357Z,17.49
2023-03-23T13:53:33.774Z,17.85
2023-03-23T13:56:18.141Z,17.64
2023-03-23T13:58:55.231Z,17.32
2023-03-23T14:01:38.078Z,16.88
2023-03-23T14:04:08.806Z,17.09
2023-03-23T14:06:36.777Z,17.52
2023-03-23T14:09:18.207Z,16.68
2023-03-23T14:11:58.558Z,16.81
2023-03-23T14:14:31.930Z,17.24
2023-03-23T14:17:17.144Z,17.11
2023-03-23T14:19:49.293Z,17.53
2023-03-23T14:22:27.985Z,17.24
2023-03-23T14:25:14.100Z,17.22
2023-03-23T14:27:42.904Z,17.55
2023-03-23T14:30:15.778Z,17.85
2023-03-23T14:32:43.436Z,17.60
2023-03-23T14:35:14.217Z,17.26
2023-03-23T14:37:40.988Z,16.66
2023-03-23T14:40:15.194Z,16.50
2023-03-23T14:42:42.938Z,16.21
2023-03-23T14:45:16.391Z,16.40
2023-03-23T14:47:50.145Z,16.60
2023-03-23T14:50:49.478Z,16.51
2023-03-23T14:53:26.479Z,16.40
2023-03-23T14:55:56.627Z,16.60
2023-03-23T14:58:24.784Z,16.21
2023-03-23T15:01:06.468Z,16.55
2023-03-23T15:03:45.240Z,16.03
2023-03-23T15:06:18.134Z,16.09
2023-03-23T15:08:46.262Z,15.74
2023-03-23T15:11:22.918Z,15.70
2023-03-23T15:13:55.632Z,16.10
2023-03-23T15:16:30.757Z,15.85
2023-03-23T15:19:01.882Z,15.92
2023-03-23T15:21:47.228Z,15.68
2023-03-23T15:24:41.739Z,15.81
2023-03-23T15:27:15.926Z,15.67
2023-03-23T15:29:53.817Z,15.53
2023-03-23T15:32:32.088Z,15.46
2023-03-23T15:35:12.463Z,15.56
2023-03-23T15:37:44.732Z,15.71
2023-03-23T15:40:23.929Z,15.78
2023-03-23T15:43:06.191Z,15.63
2023-03-23T15:45:33.476Z,15.53
2023-03-23T15:48:12.845Z,15.36
2023-03-23T15:50:41.646Z,15.70
2023-03-23T15:53:35.663Z,15.56
2023-03-23T15:56:04.705Z,15.45
2023-03-23T15:58:32.326Z,15.32
2023-03-23T16:01:03.584Z,15.30
2023-03-23T16:03:38.587Z,15.35
2023-03-23T16:06:05.750Z,14.98
2023-03-23T16:08:32.480Z,15.03
2023-03-23T16:11:00.336Z,15.03
2023-03-23T16:13:28.104Z,15.03
2023-03-23T16:15:55.155Z,15.00
2023-03-23T16:18:23.028Z,14.86
2023-03-23T16:20:50.899Z,14.75
2023-03-23T16:23:18.256Z,14.73
2023-03-23T16:25:45.374Z,14.77
2023-03-23T16:28:13.933Z,14.80
2023-03-23T16:30:42.421Z,14.67
2023-03-23T16:33:09.796Z,14.61
2023-03-23T16:35:37.222Z,14.77
2023-03-23T16:38:08.296Z,14.54
2023-03-23T16:40:37.744Z,14.61
2023-03-23T16:43:08.801Z,14.74
2023-03-23T16:45:38.298Z,14.69
2023-03-23T16:48:05.777Z,14.46
2023-03-23T16:50:33.035Z,14.45
2023-03-23T16:52:59.890Z,14.44
2023-03-23T16:55:27.465Z,14.36
2023-03-23T16:58:05.338Z,14.26
2023-03-23T17:00:40.960Z,14.19
2023-03-23T17:03:08.236Z,14.16
2023-03-23T17:05:36.961Z,14.11
2023-03-23T17:08:04.593Z,14.09
2023-03-23T17:10:32.031Z,13.95
2023-03-23T17:12:59.367Z,13.95
2023-03-23T17:15:26.663Z,13.92
2023-03-23T17:17:55.146Z,14.04
2023-03-23T17:20:23.238Z,13.94
2023-03-23T17:22:50.191Z,13.76
2023-03-23T17:25:16.984Z,13.77
2023-03-23T17:27:43.720Z,13.64
2023-03-23T17:30:11.355Z,13.47
2023-03-23T17:32:38.466Z,13.56
2023-03-23T17:35:06.685Z,13.50
2023-03-23T17:37:33.885Z,13.42
2023-03-23T17:40:00.634Z,13.45
2023-03-23T17:42:27.670Z,13.41
2023-03-23T17:44:54.384Z,13.34
2023-03-23T17:47:21.258Z,13.33
2023-03-23T17:49:48.218Z,13.30
2023-03-23T17:52:15.171Z,13.27
2023-03-23T17:54:42.220Z,13.25
2023-03-23T17:57:09.097Z,13.31
2023-03-23T17:59:35.995Z,13.29
2023-03-23T18:02:02.834Z,13.35
2023-03-23T18:04:29.564Z,13.27
2023-03-23T18:06:56.894Z,13.23
2023-03-23T18:09:25.340Z,13.15
2023-03-23T18:11:53.160Z,13.14
2023-03-23T18:14:20.893Z,13.10
2023-03-23T18:16:50.949Z,13.12
2023-03-23T18:19:17.649Z,13.11
2023-03-23T18:21:45.949Z,13.10
2023-03-23T18:24:13.512Z,13.14
2023-03-23T18:26:40.754Z,13.13
2023-03-23T18:29:07.479Z,13.09
2023-03-23T18:31:40.056Z,13.08
2023-03-23T18:34:07.396Z,13.07
2023-03-23T18:36:34.556Z,12.94
2023-03-23T18:39:01.472Z,13.02
2023-03-23T18:41:28.356Z,13.05
2023-03-23T18:43:57.577Z,12.98
2023-03-23T18:46:25.070Z,12.90
2023-03-23T18:48:51.814Z,12.96
2023-03-23T18:51:18.645Z,12.91
2023-03-23T18:53:45.490Z,12.87
2023-03-23T18:56:17.464Z,12.86
2023-03-23T18:58:45.702Z,12.85
2023-03-23T19:01:16.495Z,12.77
2023-03-23T19:03:44.851Z,12.80
2023-03-23T19:06:19.003Z,12.75
2023-03-23T19:08:47.086Z,12.77
2023-03-23T19:11:14.368Z,12.70
2023-03-23T19:13:53.762Z,12.73
2023-03-23T19:16:25.514Z,12.71
2023-03-23T19:18:52.314Z,12.71
2023-03-23T19:23:46.550Z,12.69
2023-03-23T19:26:22.967Z,12.63
2023-03-23T19:29:18.797Z,12.57
2023-03-23T19:31:36.919Z,12.45
2023-03-23T19:34:03.756Z,12.42
2023-03-23T19:36:30.788Z,12.40
2023-03-23T19:38:58.013Z,12.34
2023-03-23T19:41:29.997Z,12.14
2023-03-23T19:43:56.729Z,12.04
2023-03-23T19:46:23.735Z,11.99
2023-03-23T19:48:50.829Z,11.99
2023-03-23T19:51:20.356Z,11.89
2023-03-23T19:53:47.796Z,11.87
2023-03-23T19:56:17.062Z,11.90
2023-03-23T19:58:44.549Z,11.84
2023-03-23T20:01:12.146Z,11.82
2023-03-23T20:03:39.220Z,11.70
2023-03-23T20:06:11.137Z,11.78
2023-03-23T20:08:43.322Z,11.67
2023-03-23T20:11:17.200Z,11.57
2023-03-23T20:13:45.574Z,11.41
2023-03-23T20:16:12.568Z,11.58
2023-03-23T20:18:40.336Z,11.49
2023-03-23T20:21:12.805Z,11.32
2023-03-23T20:23:41.218Z,11.38
2023-03-23T20:26:15.663Z,11.29
2023-03-23T20:28:42.880Z,11.30
2023-03-23T20:31:21.049Z,11.32
2023-03-23T20:34:01.097Z,11.29
2023-03-23T20:36:40.421Z,11.34
2023-03-23T20:39:11.325Z,11.40
2023-03-23T20:41:40.460Z,11.57
2023-03-23T20:44:14.390Z,11.54
2023-03-23T20:46:44.997Z,11.57
2023-03-23T20:49:13.236Z,11.63
2023-03-23T20:51:40.216Z,11.62
2023-03-23T20:54:07.297Z,11.63
2023-03-23T20:56:34.653Z,11.63
2023-03-23T20:59:02.195Z,11.55
2023-03-23T21:01:29.172Z,11.50
2023-03-23T21:03:57.150Z,11.51
2023-03-23T21:06:28.584Z,11.52
2023-03-23T21:08:56.667Z,11.53
2023-03-23T21:11:25.514Z,11.60
2023-03-23T21:13:52.585Z,11.74
2023-03-23T21:16:19.837Z,11.76
2023-03-23T21:18:47.796Z,11.80
2023-03-23T21:21:18.519Z,11.88
2023-03-23T21:23:46.908Z,11.87
2023-03-23T21:26:17.340Z,12.01
2023-03-23T21:28:45.567Z,12.03
2023-03-23T21:31:13.671Z,12.15
2023-03-23T21:33:40.956Z,12.19
2023-03-23T21:36:07.932Z,12.24
2023-03-23T21:38:35.001Z,12.27
2023-03-23T21:41:10.796Z,12.24
2023-03-23T21:43:40.923Z,12.31
2023-03-23T21:46:09.680Z,12.31
2023-03-23T21:48:38.902Z,12.39
2023-03-23T21:51:14.362Z,12.38
2023-03-23T21:53:42.344Z,12.38
2023-03-23T21:56:11.044Z,12.35
2023-03-23T21:58:38.641Z,12.30
2023-03-23T22:01:05.905Z,12.41
2023-03-23T22:03:35.420Z,12.56
2023-03-23T22:06:19.046Z,12.60
2023-03-23T22:08:46.801Z,12.58
2023-03-23T22:11:19.193Z,12.52
2023-03-23T22:13:46.641Z,12.54
2023-03-23T22:16:14.942Z,12.63
2023-03-23T22:18:43.398Z,12.63
2023-03-23T22:21:11.544Z,12.71
2023-03-23T22:23:39.100Z,12.63
2023-03-23T22:26:06.922Z,12.65
2023-03-23T22:28:37.202Z,12.75
2023-03-23T22:31:23.800Z,12.69
2023-03-23T22:33:54.396Z,12.71
2023-03-23T22:36:23.251Z,12.68
2023-03-23T22:38:51.509Z,12.75
2023-03-23T22:41:22.574Z,12.75
2023-03-23T22:43:49.514Z,12.80
2023-03-23T22:46:16.961Z,12.69
2023-03-23T22:48:44.721Z,12.71
2023-03-23T22:51:12.739Z,12.64
2023-03-23T22:53:39.621Z,12.55
2023-03-23T22:56:07.466Z,12.56
2023-03-23T22:58:35.896Z,12.48
2023-03-23T23:01:08.859Z,12.49
2023-03-23T23:03:35.662Z,12.41
2023-03-23T23:06:02.825Z,12.34
2023-03-23T23:08:30.445Z,12.42
2023-03-23T23:10:59.331Z,12.36
2023-03-23T23:13:27.110Z,12.42
2023-03-23T23:15:56.927Z,12.42
2023-03-23T23:18:26.189Z,12.37
2023-03-23T23:20:56.813Z,12.37
2023-03-23T23:23:24.741Z,12.38
2023-03-23T23:25:51.723Z,12.38
2023-03-23T23:28:19.634Z,12.38
2023-03-23T23:30:46.890Z,12.39
2023-03-23T23:33:14.162Z,12.37
2023-03-23T23:35:41.987Z,12.34
2023-03-23T23:38:12.820Z,12.41
2023-03-23T23:40:41.581Z,12.36
2023-03-23T23:43:11.029Z,12.32
2023-03-23T23:45:37.906Z,12.29
2023-03-23T23:48:05.575Z,12.20
2023-03-23T23:50:32.338Z,12.18
2023-03-23T23:52:59.016Z,12.19
2023-03-23T23:55:26.474Z,12.15
2023-03-23T23:57:53.382Z,12.18
